createdAt,value
2022-07-25T00:00:10.894Z,6.50
2022-07-25T00:02:59.761Z,6.17
2022-07-25T00:05:48.302Z,6.50
2022-07-25T00:08:37.557Z,7.77
2022-07-25T00:11:25.560Z,6.07
2022-07-25T00:14:13.998Z,6.07
2022-07-25T00:17:02.090Z,7.23
2022-07-25T00:19:50.610Z,6.33
2022-07-25T00:22:38.940Z,7.13
2022-07-25T00:25:29.128Z,6.13
2022-07-25T00:28:17.247Z,6.00
2022-07-25T00:31:05.504Z,6.87
2022-07-25T00:33:53.657Z,7.87
2022-07-25T00:36:41.669Z,7.10
2022-07-25T00:39:30.247Z,7.47
2022-07-25T00:42:20.067Z,6.57
2022-07-25T00:45:11.191Z,8.03
2022-07-25T00:47:59.456Z,6.23
2022-07-25T00:50:47.414Z,5.93
2022-07-25T00:53:36.281Z,9.97
2022-07-25T00:56:26.461Z,6.73
2022-07-25T00:59:18.698Z,6.37
2022-07-25T01:02:08.102Z,8.23
2022-07-25T01:04:57.119Z,6.93
2022-07-25T01:07:45.677Z,6.47
2022-07-25T01:10:35.816Z,6.70
2022-07-25T01:13:25.122Z,6.50
2022-07-25T01:16:14.645Z,6.60
2022-07-25T01:19:03.423Z,6.13
2022-07-25T01:21:53.501Z,6.37
2022-07-25T01:24:42.537Z,6.47
2022-07-25T01:27:32.410Z,7.37
2022-07-25T01:30:23.199Z,6.00
2022-07-25T01:33:11.450Z,7.17
2022-07-25T01:36:00.032Z,7.60
2022-07-25T01:38:49.398Z,9.07
2022-07-25T01:41:38.485Z,6.43
2022-07-25T01:44:27.509Z,6.50
2022-07-25T01:47:17.920Z,6.13
2022-07-25T01:50:06.895Z,6.43
2022-07-25T01:52:55.880Z,6.73
2022-07-25T01:55:47.979Z,6.90
2022-07-25T01:58:36.860Z,6.13
2022-07-25T02:01:25.132Z,7.33
2022-07-25T02:04:13.241Z,8.10
2022-07-25T02:07:01.964Z,7.70
2022-07-25T02:09:54.866Z,7.40
2022-07-25T02:12:46.331Z,7.30
2022-07-25T02:15:35.105Z,7.63
2022-07-25T02:18:23.336Z,7.43
2022-07-25T02:21:13.986Z,7.07
2022-07-25T02:24:03.092Z,6.83
2022-07-25T02:26:51.534Z,7.07
2022-07-25T02:29:41.321Z,6.83
2022-07-25T02:32:29.356Z,6.53
2022-07-25T02:35:17.684Z,6.50
2022-07-25T02:38:05.908Z,6.70
2022-07-25T02:40:55.484Z,7.13
2022-07-25T02:43:44.455Z,6.73
2022-07-25T02:46:35.526Z,6.57
2022-07-25T02:49:23.542Z,8.17
2022-07-25T02:52:11.902Z,7.43
2022-07-25T02:54:59.979Z,7.50
2022-07-25T02:57:48.380Z,7.47
2022-07-25T03:00:38.235Z,7.97
2022-07-25T03:03:27.722Z,7.53
2022-07-25T03:06:16.926Z,7.33
2022-07-25T03:09:05.683Z,7.07
2022-07-25T03:11:53.651Z,7.17
2022-07-25T03:14:42.367Z,12.27
2022-07-25T03:17:31.207Z,8.27
2022-07-25T03:20:21.271Z,8.10
2022-07-25T03:23:10.392Z,8.50
2022-07-25T03:25:58.901Z,7.20
2022-07-25T03:28:47.036Z,7.73
2022-07-25T03:31:35.972Z,7.50
2022-07-25T03:34:23.997Z,6.93
2022-07-25T03:37:13.624Z,7.50
2022-07-25T03:40:02.215Z,7.03
2022-07-25T03:42:51.308Z,7.90
2022-07-25T03:45:39.352Z,9.57
2022-07-25T03:48:27.920Z,7.10
2022-07-25T03:51:17.384Z,7.47
2022-07-25T03:54:08.993Z,7.47
2022-07-25T03:56:57.712Z,9.57
2022-07-25T03:59:46.091Z,7.60
2022-07-25T04:02:34.311Z,7.87
2022-07-25T04:05:23.348Z,7.67
2022-07-25T04:08:11.498Z,7.73
2022-07-25T04:11:01.277Z,8.27
2022-07-25T04:13:49.296Z,8.20
2022-07-25T04:16:37.558Z,10.07
2022-07-25T04:19:28.335Z,8.23
2022-07-25T04:22:17.052Z,7.90
2022-07-25T04:25:06.481Z,7.43
2022-07-25T04:27:55.650Z,8.30
2022-07-25T04:30:45.429Z,8.60
2022-07-25T04:33:33.821Z,7.67
2022-07-25T04:36:22.425Z,7.83
2022-07-25T04:39:10.609Z,7.23
2022-07-25T04:41:58.838Z,8.83
2022-07-25T04:44:48.130Z,8.07
2022-07-25T04:47:35.987Z,7.93
2022-07-25T04:50:25.166Z,8.40
2022-07-25T04:53:13.240Z,7.23
2022-07-25T04:56:01.873Z,8.23
2022-07-25T04:58:50.077Z,9.60
2022-07-25T05:01:39.956Z,7.23
2022-07-25T05:04:28.885Z,8.17
2022-07-25T05:07:17.881Z,7.20
2022-07-25T05:10:06.996Z,8.80
2022-07-25T05:12:55.377Z,7.00
2022-07-25T05:15:43.669Z,7.90
2022-07-25T05:18:35.140Z,7.10
2022-07-25T05:21:23.564Z,10.37
2022-07-25T05:24:11.616Z,7.80
2022-07-25T05:26:59.592Z,7.30
2022-07-25T05:29:48.926Z,7.87
2022-07-25T05:32:37.018Z,8.57
2022-07-25T05:35:26.855Z,7.50
2022-07-25T05:38:14.707Z,8.70
2022-07-25T05:41:02.674Z,9.37
2022-07-25T05:43:50.584Z,8.37
2022-07-25T05:46:38.640Z,7.60
2022-07-25T05:49:26.615Z,9.37
2022-07-25T05:52:16.097Z,7.73
2022-07-25T05:55:04.063Z,8.93
2022-07-25T05:57:52.046Z,10.00
2022-07-25T06:00:40.321Z,8.40
2022-07-25T06:03:28.331Z,8.80
2022-07-25T06:06:16.442Z,8.00
2022-07-25T06:09:07.976Z,7.70
2022-07-25T06:12:00.545Z,9.30
2022-07-25T06:14:49.180Z,9.87
2022-07-25T06:17:38.071Z,7.63
2022-07-25T06:20:26.487Z,8.17
2022-07-25T06:23:14.540Z,7.90
2022-07-25T06:26:03.978Z,7.33
2022-07-25T06:28:52.003Z,10.80
2022-07-25T06:31:40.107Z,9.23
2022-07-25T06:34:28.951Z,8.10
2022-07-25T06:37:17.469Z,9.07
2022-07-25T06:40:06.875Z,9.20
2022-07-25T06:42:56.182Z,7.97
2022-07-25T06:45:47.504Z,7.87
2022-07-25T06:48:36.080Z,8.30
2022-07-25T06:51:25.274Z,11.17
2022-07-25T06:54:13.852Z,8.03
2022-07-25T06:57:02.519Z,8.43
2022-07-25T06:59:51.728Z,7.97
2022-07-25T07:02:49.273Z,10.37
2022-07-25T07:05:37.716Z,8.63
2022-07-25T07:08:25.767Z,8.57
2022-07-25T07:11:15.395Z,8.83
2022-07-25T07:14:04.831Z,8.40
2022-07-25T07:16:54.595Z,9.00
2022-07-25T07:19:45.904Z,8.80
2022-07-25T07:22:34.508Z,8.80
2022-07-25T07:25:24.087Z,8.73
2022-07-25T07:28:16.532Z,8.50
2022-07-25T07:31:16.139Z,8.50
2022-07-25T07:34:06.348Z,8.17
2022-07-25T07:36:54.487Z,8.60
2022-07-25T07:39:43.526Z,8.73
2022-07-25T07:42:40.844Z,8.20
2022-07-25T07:45:29.708Z,8.47
2022-07-25T07:48:17.828Z,8.27
2022-07-25T07:51:08.672Z,8.80
2022-07-25T07:54:14.894Z,8.70
2022-07-25T07:57:02.748Z,8.77
2022-07-25T07:59:50.795Z,8.87
2022-07-25T08:02:44.381Z,8.67
2022-07-25T08:05:34.635Z,8.73
2022-07-25T08:08:27.848Z,8.70
2022-07-25T08:11:18.852Z,8.87
2022-07-25T08:14:08.558Z,7.70
2022-07-25T08:16:57.491Z,8.53
2022-07-25T08:19:45.521Z,8.57
2022-07-25T08:22:37.360Z,8.57
2022-07-25T08:25:27.462Z,9.63
2022-07-25T08:28:16.036Z,8.50
2022-07-25T08:31:04.994Z,8.40
2022-07-25T08:33:54.839Z,8.57
2022-07-25T08:36:43.182Z,9.33
2022-07-25T08:39:31.792Z,8.50
2022-07-25T08:42:23.180Z,8.50
2022-07-25T08:45:14.633Z,8.70
2022-07-25T08:48:02.761Z,8.10
2022-07-25T08:50:51.660Z,8.60
2022-07-25T08:53:40.363Z,8.23
2022-07-25T08:56:28.968Z,8.60
2022-07-25T08:59:18.321Z,8.52
2022-07-25T09:02:08.908Z,7.70
2022-07-25T09:04:59.314Z,8.73
2022-07-25T09:07:47.761Z,8.18
2022-07-25T09:10:36.041Z,8.40
2022-07-25T09:13:24.187Z,9.38
2022-07-25T09:16:14.245Z,8.73
2022-07-25T09:19:15.257Z,8.05
2022-07-25T09:22:05.749Z,8.45
2022-07-25T09:24:56.191Z,8.20
2022-07-25T09:27:44.441Z,8.48
2022-07-25T09:30:33.020Z,8.52
2022-07-25T09:33:22.606Z,8.27
2022-07-25T09:36:12.816Z,8.65
2022-07-25T09:39:04.865Z,8.48
2022-07-25T09:41:53.236Z,8.20
2022-07-25T09:44:41.873Z,7.78
2022-07-25T09:47:31.160Z,7.80
2022-07-25T09:50:21.768Z,8.52
2022-07-25T09:53:09.818Z,7.88
2022-07-25T09:55:58.203Z,9.63
2022-07-25T09:58:46.350Z,8.68
2022-07-25T10:01:38.404Z,8.07
2022-07-25T10:04:43.132Z,8.05
2022-07-25T10:07:34.206Z,7.38
2022-07-25T10:10:25.995Z,7.65
2022-07-25T10:13:17.997Z,7.78
2022-07-25T10:16:16.746Z,7.65
2022-07-25T10:19:04.691Z,8.02
2022-07-25T10:21:56.532Z,7.80
2022-07-25T10:24:48.418Z,8.45
2022-07-25T10:27:44.509Z,7.93
2022-07-25T10:30:36.454Z,8.15
2022-07-25T10:33:26.433Z,7.90
2022-07-25T10:36:14.437Z,7.85
2022-07-25T10:39:03.333Z,8.30
2022-07-25T10:41:55.853Z,8.38
2022-07-25T10:44:46.751Z,9.15
2022-07-25T10:47:38.218Z,8.60
2022-07-25T10:50:53.426Z,8.68
2022-07-25T10:53:38.516Z,7.40
2022-07-25T10:56:29.600Z,8.40
2022-07-25T10:59:30.995Z,8.25
2022-07-25T11:02:19.845Z,8.07
2022-07-25T11:05:08.667Z,8.23
2022-07-25T11:08:20.526Z,8.02
2022-07-25T11:11:05.402Z,7.72
2022-07-25T11:13:53.486Z,7.90
2022-07-25T11:16:43.128Z,8.10
2022-07-25T11:19:31.229Z,9.38
2022-07-25T11:22:19.186Z,8.90
2022-07-25T11:25:12.786Z,8.00
2022-07-25T11:28:03.048Z,7.53
2022-07-25T11:30:51.222Z,8.35
2022-07-25T11:33:42.048Z,8.00
2022-07-25T11:36:31.360Z,7.95
2022-07-25T11:39:19.799Z,7.55
2022-07-25T11:42:09.753Z,8.48
2022-07-25T11:44:57.769Z,8.23
2022-07-25T11:47:46.035Z,7.70
2022-07-25T11:50:37.351Z,7.85
2022-07-25T11:53:26.071Z,9.85
2022-07-25T11:56:41.217Z,8.10
2022-07-25T11:59:27.838Z,8.27
2022-07-25T12:02:23.162Z,8.40
2022-07-25T12:05:12.922Z,7.32
2022-07-25T12:08:10.118Z,7.28
2022-07-25T12:10:58.117Z,7.30
2022-07-25T12:13:46.224Z,7.25
2022-07-25T12:16:35.201Z,6.72
2022-07-25T12:19:24.032Z,6.55
2022-07-25T12:22:12.805Z,6.78
2022-07-25T12:25:02.589Z,7.15
2022-07-25T12:27:51.180Z,6.90
2022-07-25T12:30:41.473Z,8.10
2022-07-25T12:33:29.585Z,7.53
2022-07-25T12:36:17.981Z,6.88
2022-07-25T12:39:07.342Z,7.15
2022-07-25T12:41:57.464Z,7.38
2022-07-25T12:44:46.124Z,7.57
2022-07-25T12:47:34.259Z,6.95
2022-07-25T12:50:22.417Z,7.07
2022-07-25T12:53:13.474Z,6.75
2022-07-25T12:56:01.919Z,7.22
2022-07-25T12:58:51.997Z,7.18
2022-07-25T13:01:39.966Z,8.15
2022-07-25T13:04:28.949Z,7.00
2022-07-25T13:07:17.345Z,6.82
2022-07-25T13:10:07.169Z,7.60
2022-07-25T13:12:56.505Z,7.07
2022-07-25T13:15:46.492Z,7.30
2022-07-25T13:18:34.566Z,7.50
2022-07-25T13:21:22.981Z,6.97
2022-07-25T13:24:12.461Z,6.70
2022-07-25T13:27:01.658Z,7.38
2022-07-25T13:29:54.303Z,8.40
2022-07-25T13:32:44.722Z,6.75
2022-07-25T13:35:38.858Z,6.90
2022-07-25T13:38:28.157Z,6.85
2022-07-25T13:41:16.137Z,7.85
2022-07-25T13:44:04.635Z,7.50
2022-07-25T13:46:52.689Z,6.97
2022-07-25T13:49:43.464Z,7.07
2022-07-25T13:52:31.873Z,7.13
2022-07-25T13:55:21.733Z,6.88
2022-07-25T13:58:10.799Z,7.65
2022-07-25T14:01:00.009Z,7.53
2022-07-25T14:03:49.019Z,6.97
2022-07-25T14:06:39.378Z,6.93
2022-07-25T14:09:27.449Z,7.20
2022-07-25T14:12:15.434Z,7.10
2022-07-25T14:15:04.397Z,7.07
2022-07-25T14:17:52.724Z,7.93
2022-07-25T14:20:41.533Z,7.20
2022-07-25T14:23:32.083Z,7.57
2022-07-25T14:26:21.410Z,7.03
2022-07-25T14:29:11.820Z,6.90
2022-07-25T14:32:00.437Z,7.50
2022-07-25T14:34:48.795Z,7.18
2022-07-25T14:37:36.695Z,6.82
2022-07-25T14:40:26.124Z,7.65
2022-07-25T14:43:14.830Z,7.35
2022-07-25T14:46:02.779Z,7.45
2022-07-25T14:48:53.182Z,7.45
2022-07-25T14:51:43.100Z,8.15
2022-07-25T14:54:31.227Z,6.97
2022-07-25T14:57:20.558Z,7.05
2022-07-25T15:00:10.960Z,7.97
2022-07-25T15:03:00.074Z,7.95
2022-07-25T15:05:48.417Z,8.85
2022-07-25T15:08:38.282Z,7.20
2022-07-25T15:11:26.352Z,6.75
2022-07-25T15:14:15.979Z,7.50
2022-07-25T15:17:07.746Z,7.63
2022-07-25T15:19:56.268Z,7.78
2022-07-25T15:22:46.401Z,8.18
2022-07-25T15:26:00.566Z,7.03
2022-07-25T15:28:42.890Z,7.50
2022-07-25T15:31:33.339Z,7.32
2022-07-25T15:34:22.208Z,7.53
2022-07-25T15:37:12.500Z,7.60
2022-07-25T15:40:01.343Z,15.88
2022-07-25T15:42:49.569Z,7.55
2022-07-25T15:45:39.369Z,8.05
2022-07-25T15:48:29.417Z,7.78
2022-07-25T15:51:17.736Z,7.57
2022-07-25T15:54:06.869Z,7.68
2022-07-25T15:56:56.171Z,8.32
2022-07-25T15:59:45.319Z,8.02
2022-07-25T16:02:35.205Z,8.73
2022-07-25T16:05:25.031Z,8.13
2022-07-25T16:08:13.337Z,8.20
2022-07-25T16:11:01.665Z,7.43
2022-07-25T16:13:50.217Z,7.82
2022-07-25T16:16:38.818Z,8.40
2022-07-25T16:19:27.073Z,7.63
2022-07-25T16:22:16.693Z,8.63
2022-07-25T16:25:06.157Z,8.45
2022-07-25T16:27:54.926Z,8.25
2022-07-25T16:30:42.798Z,9.48
2022-07-25T16:33:30.748Z,9.45
2022-07-25T16:36:21.778Z,8.32
2022-07-25T16:39:11.954Z,7.90
2022-07-25T16:42:00.132Z,7.70
2022-07-25T16:44:49.788Z,8.13
2022-07-25T16:47:41.846Z,7.72
2022-07-25T16:50:30.175Z,7.40
2022-07-25T16:53:18.278Z,6.82
2022-07-25T16:56:08.292Z,7.07
2022-07-25T16:58:56.224Z,7.93
2022-07-25T17:01:46.665Z,6.60
2022-07-25T17:04:35.131Z,6.82
2022-07-25T17:07:23.165Z,7.32
2022-07-25T17:10:11.887Z,6.45
2022-07-25T17:13:01.179Z,7.10
2022-07-25T17:15:49.427Z,6.53
2022-07-25T17:18:37.778Z,6.22
2022-07-25T17:21:25.909Z,5.90
2022-07-25T17:24:15.517Z,5.38
2022-07-25T17:27:04.657Z,4.93
2022-07-25T17:29:54.136Z,5.63
2022-07-25T17:32:42.834Z,7.03
2022-07-25T17:35:31.481Z,5.00
2022-07-25T17:38:25.444Z,4.88
2022-07-25T17:41:15.843Z,4.55
2022-07-25T17:44:09.947Z,4.70
2022-07-25T17:47:03.557Z,5.00
2022-07-25T17:49:51.944Z,4.53
2022-07-25T17:52:41.598Z,4.38
2022-07-25T17:55:29.902Z,4.90
2022-07-25T17:58:20.626Z,3.97
2022-07-25T18:01:10.643Z,3.72
2022-07-25T18:04:01.029Z,4.35
2022-07-25T18:06:50.250Z,3.33
2022-07-25T18:09:38.431Z,3.20
2022-07-25T18:12:29.412Z,2.83
2022-07-25T18:15:18.266Z,3.20
2022-07-25T18:18:07.477Z,2.65
2022-07-25T18:20:57.968Z,3.78
2022-07-25T18:23:47.075Z,4.78
2022-07-25T18:26:35.662Z,3.80
2022-07-25T18:29:24.574Z,4.72
2022-07-25T18:32:13.692Z,4.03
2022-07-25T18:35:02.090Z,3.40
2022-07-25T18:37:52.758Z,4.00
2022-07-25T18:40:40.860Z,3.57
2022-07-25T18:43:29.303Z,4.33
2022-07-25T18:46:18.261Z,3.93
2022-07-25T18:49:09.641Z,4.63
2022-07-25T18:51:57.945Z,5.57
2022-07-25T18:54:47.938Z,4.03
2022-07-25T18:57:36.966Z,6.07
2022-07-25T19:00:26.144Z,4.63
2022-07-25T19:03:14.190Z,3.93
2022-07-25T19:06:03.770Z,4.23
2022-07-25T19:08:52.758Z,3.30
2022-07-25T19:11:42.628Z,4.00
2022-07-25T19:14:30.923Z,7.17
2022-07-25T19:17:19.130Z,2.90
2022-07-25T19:20:08.749Z,4.30
2022-07-25T19:22:58.726Z,4.00
2022-07-25T19:25:46.764Z,3.23
2022-07-25T19:28:36.566Z,4.30
2022-07-25T19:31:24.545Z,2.70
2022-07-25T19:34:12.857Z,3.60
2022-07-25T19:37:00.855Z,2.80
2022-07-25T19:39:49.727Z,3.20
2022-07-25T19:42:37.768Z,2.50
2022-07-25T19:45:27.090Z,2.73
2022-07-25T19:48:15.030Z,3.20
2022-07-25T19:51:03.411Z,5.70
2022-07-25T19:53:51.409Z,5.40
2022-07-25T19:56:39.373Z,2.97
2022-07-25T19:59:27.338Z,3.40
2022-07-25T20:02:16.650Z,2.63
2022-07-25T20:05:05.002Z,4.70
2022-07-25T20:07:52.856Z,2.60
2022-07-25T20:10:42.087Z,3.50
2022-07-25T20:13:30.095Z,2.70
2022-07-25T20:16:18.118Z,2.33
2022-07-25T20:19:09.369Z,5.47
2022-07-25T20:21:58.844Z,5.20
2022-07-25T20:24:47.609Z,2.80
2022-07-25T20:27:36.641Z,3.03
2022-07-25T20:30:25.048Z,2.57
2022-07-25T20:33:13.255Z,4.57
2022-07-25T20:36:03.226Z,3.50
2022-07-25T20:38:51.484Z,3.33
2022-07-25T20:41:40.171Z,1.93
2022-07-25T20:44:28.216Z,3.90
2022-07-25T20:47:17.073Z,5.00
2022-07-25T20:50:05.999Z,2.90
2022-07-25T20:52:55.213Z,3.67
2022-07-25T20:55:43.377Z,3.10
2022-07-25T20:58:31.662Z,3.87
2022-07-25T21:01:21.515Z,2.40
2022-07-25T21:04:10.129Z,3.60
2022-07-25T21:06:58.869Z,4.07
2022-07-25T21:09:49.390Z,3.27
2022-07-25T21:12:37.990Z,4.77
2022-07-25T21:15:26.210Z,3.40
2022-07-25T21:18:14.345Z,3.23
2022-07-25T21:21:03.104Z,4.97
2022-07-25T21:23:51.225Z,2.63
2022-07-25T21:26:41.562Z,5.40
2022-07-25T21:29:29.805Z,4.73
2022-07-25T21:32:18.129Z,2.77
2022-07-25T21:35:07.617Z,4.23
2022-07-25T21:37:55.831Z,5.23
2022-07-25T21:40:44.026Z,2.93
2022-07-25T21:43:33.594Z,3.50
2022-07-25T21:46:21.582Z,4.93
2022-07-25T21:49:41.436Z,3.67
2022-07-25T21:52:34.761Z,3.43
2022-07-25T21:55:23.952Z,4.80
2022-07-25T21:58:12.321Z,6.17
2022-07-25T22:01:02.530Z,5.10
2022-07-25T22:03:53.065Z,3.80
2022-07-25T22:06:41.434Z,3.27
2022-07-25T22:09:29.711Z,3.33
2022-07-25T22:12:17.997Z,3.37
2022-07-25T22:15:09.073Z,4.30
2022-07-25T22:18:01.719Z,4.70
2022-07-25T22:20:50.348Z,3.70
2022-07-25T22:23:39.306Z,4.13
2022-07-25T22:26:27.438Z,3.77
2022-07-25T22:29:15.491Z,3.67
2022-07-25T22:32:04.486Z,2.87
2022-07-25T22:34:54.177Z,5.43
2022-07-25T22:37:42.509Z,5.23
2022-07-25T22:40:30.425Z,2.37
2022-07-25T22:43:18.843Z,2.73
2022-07-25T22:46:06.927Z,4.23
2022-07-25T22:48:55.672Z,2.33
2022-07-25T22:51:45.368Z,2.63
2022-07-25T22:54:34.051Z,3.67
2022-07-25T22:57:22.586Z,2.87
2022-07-25T23:00:12.883Z,3.50
2022-07-25T23:03:01.126Z,3.33
2022-07-25T23:05:49.837Z,2.13
2022-07-25T23:08:43.745Z,3.63
2022-07-25T23:11:32.107Z,3.00
2022-07-25T23:14:20.938Z,3.87
2022-07-25T23:17:21.331Z,4.57
2022-07-25T23:20:11.357Z,5.03
2022-07-25T23:22:59.484Z,2.83
2022-07-25T23:25:49.799Z,3.60
2022-07-25T23:28:38.285Z,4.10
2022-07-25T23:31:26.567Z,2.73
2022-07-25T23:34:15.702Z,1.93
2022-07-25T23:37:04.195Z,2.07
2022-07-25T23:39:52.858Z,2.93
2022-07-25T23:42:42.481Z,2.23
2022-07-25T23:45:30.675Z,3.47
2022-07-25T23:48:19.519Z,3.00
2022-07-25T23:51:09.015Z,4.10
2022-07-25T23:53:57.590Z,3.00
2022-07-25T23:56:45.857Z,5.60
2022-07-25T23:59:35.448Z,5.03
